Aviation Digital Data Service (ADDS)

Output produced by METARs form (1811 UTC 14 August 2018)
found at http://www.aviationweather.gov/adds/metars/
 
GLRB 141800Z 21001KT 9999 BKN016 27/23 Q1013 RMK NOSIG
TAF GLRB 141000Z 1412/1518 24010KT 9999 BKN018 
     TEMPO 1413/1417 20010KT 8000 SHRA BKN015 
     TEMPO 1419/1423 00000KT 9999 SCT013